Ciudad Obregón International Airport
MMCN : now visible

Airfield :











YOU CAN JOIN US ON...

 
LOGIN :

Register | Disclaimer

   EN    FR    IT 

 









Legend :    VFR   Marginal VFR   IFR   Intensive IFR   Very Intensive IFR
Visi :
Ceiling :
>= 8 km
>= 3000ft
5 to 8 km
1000 to 3000 ft
1500m to 5 km
500 to 1000 ft
800 to 1500m
200 to 500 ft
< 800m
< 200 ft
Symbols :   Thunderstorms  Fog  Heavy snow  Heavy precipitations  Wind > 20 kt






- Airport Elevation : 243 ft
- IATA code : CEN


MMCN - Ciudad Obregón International

CURRENT METAR :
  • 270141Z 28004KT 10SM SKC 19/11 A2999

EXPIRED METARs :
  • 270043Z 25004KT 10SM SKC 22/11 A2997 RMK FULYR NW-NE
  • 262340Z 27007KT 10SM SKC 25/10 A2997 RMK SLP149

TAF AMD TAF MMCN
Valid from the 26 at 15:00 until the 27 at 06:00 UTC


261527Z 2615/2706 00000KT 5SM HZ SKC
FM261900 24010KT P6SM SKC



MET'MAP, your aeronautical weather chart ! - Copyright ORBIFLY December 2007 - Disclaimer

ORBIFLY MET'MAP TEAM :

Programming & Development : Alexandra Zaïnal
Concept & original design : Baudouin d'Aumeries
Assistance for programming : Marc-Olivier Méhu
Technical & hardware support : Manuel Goepfert

Contact : metmap@orbifly.com




SOURCES & CREDITS :

   NOAA       Earth
Advisory